VYMD/MDL METAR and TAF weather

Enter ICAO airport designator
Station Type Date Time Source
VYMD METAR 2021/09/28 03:30 UTC NOAA

VYMD 280330Z 23003KT 7000 BKN018 FEW020CB BKN110 28/25 Q1012


Station Type Date Time Source
VYMD Decoded METAR 2021/09/28 03:30 UTC NOAA

Station name not available
Sep 27, 2021 - 11:30 PM EDT / 2021.09.28 0330 UTC
Wind: from the SW (230 degrees) at 3 MPH (3 KT):0
Visibility: 4 mile(s):0
Sky conditions: mostly cloudy
Weather: Cumulonimbus clouds observed
Temperature: 82 F (28 C)
Dew Point: 77 F (25 C)
Relative Humidity: 83%
Pressure (altimeter): 29.88 in. Hg (1012 hPa)
ob: VYMD 280330Z 23003KT 7000 BKN018 FEW020CB BKN110 28/25 Q1012
cycle: 3

Station Type Date Time Source
VYMD TAF 2021/09/27 18:00 UTC NOAA

TAF VYMD 271700Z 2718/2818 24003KT 7000 BKN020 FEW025CB
TEMPO 2718/2724 19005KT 5000 -TSRA BKN015 FEW018CB OVC090

Example: see airport list